Latest Weather Observations for Campania

IDT60801

Issued at 9:01 pm EST Friday 31 July 2015 (issued every 30 minutes, with the page automatically refreshed every 10 minutes)

About weather observations | Map of weather stations | Latest weather observations for TAS | Other Formats
Station Details ID: 094212 Name: CAMPANIA (KINCORA) Lat: -42.69 Lon: 147.43 Height: 45.0 m
Data from the previous 72 hours. | See also: Recent months at Campania
Date/Time
EST
Temp
°C
App
Temp
°C
Dew
Point
Rel
Hum
%
Delta-T
°C
Wind Press
QNH
hPa
Press
MSL
hPa
Rain
since 9 am
mm
Dir
 
Spd
km/h
Gust
km/h
Spd
kts
Gust
kts
31/09:00pm 8.2 2.1 2.9 69 2.2 N 24 33 13 18 - - 0.0
31/08:30pm 7.9 1.8 3.0 71 2.1 N 24 28 13 15 - - 0.0
31/08:00pm 7.8 2.4 2.3 68 2.3 N 20 28 11 15 - - 0.0
31/07:30pm 8.2 1.7 2.7 68 2.3 N 26 35 14 19 - - 0.0
31/07:00pm 8.2 1.7 2.7 68 2.3 N 26 35 14 19 - - 0.0
31/06:30pm 8.4 3.2 2.4 66 2.5 N 19 32 10 17 - - 0.0
31/06:00pm 8.4 3.8 1.6 62 2.8 N 15 20 8 11 - - 0.0
31/05:30pm 8.5 3.6 2.1 64 2.7 N 17 20 9 11 - - 0.0
31/05:00pm 9.7 4.8 2.1 59 3.2 N 17 24 9 13 - - 0.0
31/04:30pm 11.3 6.1 0.4 47 4.5 NNW 17 24 9 13 - - 0.0
31/04:00pm 12.1 6.3 -0.1 43 5.0 NNW 20 28 11 15 - - 0.0
31/03:30pm 12.2 6.7 0.3 44 4.9 NNW 19 26 10 14 - - 0.0
31/03:00pm 11.8 5.6 0.0 44 4.8 N 22 32 12 17 - - 0.0
31/02:30pm 12.0 5.5 0.5 45 4.8 N 24 32 13 17 - - 0.0
31/02:00pm 11.7 5.1 -0.1 44 4.8 N 24 37 13 20 - - 0.0
31/01:30pm 10.7 4.2 0.4 49 4.2 NNW 24 33 13 18 - - 0.0
31/01:00pm 10.6 4.5 0.3 49 4.2 N 22 35 12 19 - - 0.0
31/12:30pm 10.4 4.8 1.0 52 3.9 NNW 20 32 11 17 - - 0.0
31/12:00pm 10.3 3.8 0.6 51 4.0 NNW 24 41 13 22 - - 0.0
31/11:30am 10.3 4.6 0.3 50 4.1 NW 20 30 11 16 - - 0.0
31/11:00am 9.9 4.7 0.3 51 3.9 NNW 17 22 9 12 - - 0.0
31/10:30am 8.9 4.5 0.1 54 3.5 NNW 13 19 7 10 - - 0.0
31/10:00am 8.7 3.5 -0.1 54 3.5 N 17 28 9 15 - - 0.0
31/09:30am 8.3 3.1 -0.2 55 3.3 N 17 22 9 12 - - 0.0
31/09:00am 7.2 3.1 0.0 60 2.8 NNE 11 19 6 10 - - 0.0
31/08:30am 5.2 1.4 -0.4 67 2.1 NE 9 11 5 6 - - 0.0
31/08:00am 3.7 -0.6 -1.4 69 1.8 N 11 17 6 9 - - 0.0
31/07:30am 3.3 -2.2 -1.8 69 1.8 N 17 20 9 11 - - 0.0
31/07:00am 4.3 -1.5 -1.7 65 2.2 N 19 20 10 11 - - 0.0
31/06:30am 5.5 1.9 -2.1 58 2.8 NW 7 13 4 7 - - 0.0
31/06:00am 6.1 1.0 -1.8 57 2.9 WNW 15 24 8 13 - - 0.0
31/05:30am 6.4 2.0 -2.5 53 3.2 WNW 11 20 6 11 - - 0.0
31/05:00am 6.0 1.2 -2.6 54 3.1 NNW 13 19 7 10 - - 0.0
31/04:30am 6.0 1.3 -1.9 57 2.9 NW 13 20 7 11 - - 0.0
31/04:00am 6.4 0.7 -0.6 61 2.7 W 19 28 10 15 - - 0.0
31/03:30am 6.8 1.1 -1.1 57 3.0 W 19 30 10 16 - - 0.0
31/03:00am 6.5 1.8 -1.9 55 3.1 NW 13 24 7 13 - - 0.0
31/02:30am 6.6 0.6 -1.3 57 3.0 W 20 37 11 20 - - 0.0
31/02:00am 6.7 2.5 -0.7 59 2.8 WNW 11 20 6 11 - - 0.0
31/01:30am 6.5 1.6 -0.5 61 2.7 WNW 15 30 8 16 - - 0.0
31/01:00am 6.0 0.6 1.5 73 1.8 WNW 19 32 10 17 - - 0.0
31/12:41am 6.4 -0.7 1.5 71 2.0 WSW 28 43 15 23 - - 0.0
31/12:30am 6.5 2.6 1.0 68 2.2 WNW 11 20 6 11 - - 0.0
31/12:00am 6.7 2.3 0.6 65 2.4 WNW 13 22 7 12 - - 0.0
 
Date/Time
EST
Temp
°C
App
Temp
°C
Dew
Point
Rel
Hum
%
Delta-T
°C
Wind Press
QNH
hPa
Press
MSL
hPa
Rain
since 9 am
mm
Dir
 
Spd
km/h
Gust
km/h
Spd
kts
Gust
kts
30/11:30pm 7.2 2.4 0.4 62 2.7 WNW 15 20 8 11 - - 0.0
30/11:00pm 7.5 2.5 1.1 64 2.6 WSW 17 22 9 12 - - 0.0
30/10:30pm 8.3 3.7 1.5 62 2.8 W 15 28 8 15 - - 0.0
30/10:00pm 8.8 2.6 1.9 62 2.9 W 24 35 13 19 - - 0.0
30/09:30pm 8.9 4.5 2.9 66 2.6 W 15 28 8 15 - - 0.0
30/09:00pm 9.3 3.6 2.9 64 2.7 WNW 22 35 12 19 - - 0.0
30/08:30pm 10.0 3.5 2.6 60 3.2 WNW 26 41 14 22 - - 0.0
30/08:00pm 10.5 4.1 3.1 60 3.2 WNW 26 41 14 22 - - 0.0
30/07:31pm 11.1 4.0 3.6 60 3.3 NW 30 56 16 30 - - 0.0
30/07:30pm 11.0 3.5 3.5 60 3.3 NW 32 46 17 25 - - 0.0
30/07:00pm 11.8 2.6 3.3 56 3.8 NW 41 59 22 32 - - 0.0
30/06:30pm 12.3 4.0 2.2 50 4.4 NNW 35 63 19 34 - - 0.0
30/06:00pm 12.4 3.4 2.3 50 4.4 NNW 39 57 21 31 - - 0.0
30/05:31pm 12.5 5.6 2.4 50 4.4 N 28 52 15 28 - - 0.0
30/05:30pm 12.3 5.8 2.5 51 4.3 N 26 46 14 25 - - 0.0
30/05:10pm 12.3 5.3 2.2 50 4.4 N 28 48 15 26 - - 0.0
30/05:00pm 12.3 6.5 2.5 51 4.3 N 22 48 12 26 - - 0.0
30/04:35pm 12.8 5.9 2.6 50 4.5 NNW 28 52 15 28 - - 0.0
30/04:30pm 12.9 6.8 2.7 50 4.5 NNW 24 46 13 25 - - 0.0
30/04:00pm 13.3 5.1 2.8 49 4.6 NNW 35 59 19 32 - - 0.0
30/03:30pm 13.7 4.8 2.9 48 4.8 NNW 39 57 21 31 - - 0.0
30/03:20pm 13.9 6.6 2.5 46 5.0 NNW 30 56 16 30 - - 0.0
30/03:00pm 15.0 8.3 3.8 47 5.1 N 28 43 15 23 - - 0.0
30/02:57pm 14.6 7.5 3.4 47 5.1 N 30 48 16 26 - - 0.0
30/02:30pm 13.9 6.5 3.9 51 4.6 N 32 44 17 24 - - 0.0
30/02:00pm 13.7 6.3 4.0 52 4.4 N 32 44 17 24 - - 0.0
30/01:30pm 13.4 3.8 3.5 51 4.5 N 43 63 23 34 - - 0.0
30/01:00pm 13.8 5.7 3.0 48 4.8 NNW 35 57 19 31 - - 0.0
30/12:32pm 13.5 5.7 2.7 48 4.8 NNW 33 52 18 28 - - 0.0
30/12:30pm 13.5 5.3 2.7 48 4.8 NNW 35 48 19 26 - - 0.0
30/12:00pm 13.8 6.9 2.4 46 5.0 N 28 46 15 25 - - 0.0
30/11:30am 13.4 7.6 4.3 54 4.2 N 24 35 13 19 - - 0.0
30/11:00am 12.7 7.6 4.2 56 3.9 N 20 28 11 15 - - 0.0
30/10:30am 11.8 7.3 4.3 60 3.4 N 17 26 9 14 - - 0.0
30/10:00am 10.7 6.7 4.8 67 2.7 N 15 26 8 14 - - 0.0
30/09:30am 10.2 6.6 4.8 69 2.4 N 13 17 7 9 - - 0.0
30/09:00am 10.1 5.1 4.5 68 2.5 N 20 30 11 16 - - 0.0
30/08:30am 9.8 4.6 3.8 66 2.6 N 20 26 11 14 - - 0.0
30/08:00am 8.4 3.4 4.4 76 1.8 N 20 24 11 13 - - 0.0
30/07:30am 8.4 2.9 4.2 75 1.8 N 22 26 12 14 - - 0.0
30/07:00am 8.5 2.6 4.1 74 1.9 N 24 32 13 17 - - 0.0
30/06:30am 8.2 2.2 3.5 72 2.0 N 24 30 13 16 - - 0.0
30/06:00am 7.8 1.4 3.3 73 1.9 N 26 35 14 19 - - 0.0
30/05:30am 7.7 2.1 3.6 75 1.8 N 22 30 12 16 - - 0.0
30/05:00am 7.7 1.7 3.4 74 1.8 N 24 30 13 16 - - 0.0
30/04:30am 8.0 1.7 3.5 73 1.9 N 26 35 14 19 - - 0.0
30/04:00am 8.6 3.0 3.4 70 2.2 N 22 28 12 15 - - 0.0
30/03:30am 8.3 3.9 2.5 67 2.4 N 15 20 8 11 - - 0.0
30/03:00am 8.8 2.3 2.6 65 2.6 N 26 32 14 17 - - 0.0
30/02:30am 9.2 2.9 3.6 68 2.4 N 26 30 14 16 - - 0.0
30/02:00am 9.6 4.5 3.1 64 2.8 N 19 24 10 13 - - 0.0
30/01:30am 9.3 4.4 4.3 71 2.2 N 19 24 10 13 - - 0.0
30/01:00am 8.4 3.5 5.2 80 1.4 N 20 24 11 13 - - 0.0
30/12:30am 9.1 4.3 5.5 78 1.6 N 20 26 11 14 - - 0.0
30/12:00am 9.3 4.5 5.5 77 1.7 N 20 28 11 15 - - 0.0
 
Date/Time
EST
Temp
°C
App
Temp
°C
Dew
Point
Rel
Hum
%
Delta-T
°C
Wind Press
QNH
hPa
Press
MSL
hPa
Rain
since 9 am
mm
Dir
 
Spd
km/h
Gust
km/h
Spd
kts
Gust
kts
29/11:30pm 9.9 5.0 5.3 73 2.1 N 20 26 11 14 - - 0.0
29/11:00pm 9.4 5.4 5.0 74 2.0 N 15 20 8 11 - - 0.0
29/10:30pm 9.4 5.0 5.0 74 2.0 N 17 20 9 11 - - 0.0
29/10:00pm 9.2 4.8 4.8 74 2.0 N 17 19 9 10 - - 0.0
29/09:30pm 9.6 5.2 5.0 73 2.1 N 17 20 9 11 - - 0.0
29/09:00pm 9.8 5.0 5.4 74 2.0 N 20 28 11 15 - - 0.0
29/08:30pm 10.4 4.7 5.0 69 2.4 N 24 32 13 17 - - 0.0
29/08:00pm 9.8 5.7 4.4 69 2.4 N 15 20 8 11 - - 0.0
29/07:30pm 8.2 6.6 4.6 78 1.6 N 2 7 1 4 - - 0.0
29/07:00pm 9.4 6.6 5.0 74 2.0 NE 9 13 5 7 - - 0.0
29/06:30pm 10.0 7.5 4.8 70 2.3 N 7 11 4 6 - - 0.0
29/06:00pm 10.7 7.1 5.0 68 2.6 N 13 17 7 9 - - 0.0
29/05:30pm 10.2 7.3 4.8 69 2.4 N 9 13 5 7 - - 0.0
29/05:00pm 11.1 8.6 4.6 64 2.9 N 7 9 4 5 - - 0.0
29/04:30pm 12.1 9.1 4.3 59 3.5 NNW 9 13 5 7 - - 0.0
29/04:00pm 12.6 9.3 4.3 57 3.8 NNW 11 19 6 10 - - 0.0
29/03:30pm 12.7 8.6 4.4 57 3.8 NNW 15 19 8 10 - - 0.0
29/03:00pm 12.9 8.8 4.1 55 4.0 NNW 15 24 8 13 - - 0.0
29/02:30pm 13.0 8.1 3.9 54 4.1 NNW 19 28 10 15 - - 0.0
29/02:00pm 13.0 8.1 3.9 54 4.1 NW 19 30 10 16 - - 0.0
29/01:30pm 13.1 7.9 3.7 53 4.2 NW 20 30 11 16 - - 0.0
29/01:00pm 13.1 8.0 4.3 55 4.0 NW 20 32 11 17 - - 0.0
29/12:30pm 13.0 8.1 3.9 54 4.1 NW 19 22 10 12 - - 0.0
29/12:00pm 12.4 7.8 3.9 56 3.8 NW 17 26 9 14 - - 0.0
29/11:30am 12.9 9.2 4.3 56 3.9 WNW 13 20 7 11 - - 0.0
29/11:00am 12.2 7.7 4.4 59 3.5 N 17 24 9 13 - - 0.0
29/10:30am 11.3 6.9 4.7 64 3.0 N 17 24 9 13 - - 0.0
29/10:00am 10.4 5.0 4.3 66 2.7 N 22 28 12 15 - - 0.0
29/09:30am 9.6 4.7 4.2 69 2.4 N 19 24 10 13 - - 0.0
29/09:00am 9.3 6.5 5.3 76 1.8 N 9 15 5 8 - - 0.0
29/08:30am 7.3 3.6 4.3 81 1.3 NNE 13 17 7 9 - - 0.0
29/08:00am 6.9 1.3 3.5 79 1.4 N 22 26 12 14 - - 0.0
29/07:30am 6.4 1.2 3.4 81 1.3 N 20 24 11 13 - - 0.0
29/07:00am 6.8 1.6 3.6 80 1.4 N 20 26 11 14 - - 0.0
29/06:30am 5.9 3.1 5.0 94 0.4 N 9 13 5 7 - - 0.0
29/06:00am 3.9 0.7 2.9 93 0.4 N 9 11 5 6 - - 0.0
29/05:30am 4.0 1.4 3.1 94 0.4 N 6 9 3 5 - - 0.0
29/05:00am 3.6 0.3 2.6 93 0.4 NNW 9 13 5 7 - - 0.0
29/04:30am 4.3 1.1 3.1 92 0.5 N 9 11 5 6 - - 0.0
29/04:00am 5.0 1.9 3.7 91 0.5 NNE 9 11 5 6 - - 0.0
29/03:30am 4.9 2.1 3.4 90 0.6 NNW 7 9 4 5 - - 0.0
29/03:00am 5.1 2.3 3.4 89 0.7 NNW 7 9 4 5 - - 0.0
29/02:30am 5.2 2.1 3.5 89 0.7 N 9 11 5 6 - - 0.0
29/02:00am 5.9 3.2 3.9 87 0.8 N 7 9 4 5 - - 0.0
29/01:30am 6.0 2.7 4.3 89 0.7 NNW 11 15 6 8 - - 0.0
29/01:00am 6.6 3.2 3.9 83 1.2 N 11 15 6 8 - - 0.0
29/12:30am 8.4 4.5 5.5 82 1.3 N 15 17 8 9 - - 0.0
29/12:00am 8.2 4.8 5.7 84 1.1 N 13 15 7 8 - - 0.0
 
Date/Time
EST
Temp
°C
App
Temp
°C
Dew
Point
Rel
Hum
%
Delta-T
°C
Wind Press
QNH
hPa
Press
MSL
hPa
Rain
since 9 am
mm
Dir
 
Spd
km/h
Gust
km/h
Spd
kts
Gust
kts
28/11:30pm 6.5 3.8 3.8 83 1.1 NNW 7 9 4 5 - - 0.0
28/11:00pm 7.6 4.7 4.7 82 1.3 NNW 9 11 5 6 - - 0.0
28/10:30pm 9.8 7.1 5.8 76 1.8 NNW 9 13 5 7 - - 0.0
28/10:00pm 9.2 6.5 5.6 78 1.6 NNW 9 13 5 7 - - 0.0
28/09:30pm 10.5 7.9 5.9 73 2.1 N 9 11 5 6 - - 0.0

Other Formats:

Comma delimited format used in spreadsheet applications
http://www.bom.gov.au/fwo/IDT60801/IDT60801.95972.axf

JavaScript Object Notation format (JSON) in row-major order
http://www.bom.gov.au/fwo/IDT60801/IDT60801.95972.json